createdAt,value
2019-02-16T00:02:50.673Z,100.00
2019-02-16T00:05:55.902Z,100.00
2019-02-16T00:09:01.066Z,100.00
2019-02-16T00:12:07.894Z,100.00
2019-02-16T00:15:13.121Z,100.00
2019-02-16T00:18:18.341Z,100.00
2019-02-16T00:21:23.488Z,100.00
2019-02-16T00:24:28.704Z,100.00
2019-02-16T00:27:33.882Z,100.00
2019-02-16T00:30:39.078Z,100.00
2019-02-16T00:33:44.317Z,100.00
2019-02-16T00:36:49.545Z,100.00
2019-02-16T00:39:54.857Z,100.00
2019-02-16T00:43:00.050Z,100.00
2019-02-16T00:46:05.228Z,100.00
2019-02-16T00:49:10.458Z,100.00
2019-02-16T00:52:15.650Z,100.00
2019-02-16T00:55:20.837Z,100.00
2019-02-16T00:58:26.096Z,100.00
2019-02-16T01:01:31.291Z,100.00
2019-02-16T01:04:36.438Z,100.00
2019-02-16T01:07:41.573Z,100.00
2019-02-16T01:10:46.828Z,100.00
2019-02-16T01:13:52.104Z,100.00
2019-02-16T01:16:57.261Z,100.00
2019-02-16T01:20:02.474Z,100.00
2019-02-16T01:23:07.623Z,100.00
2019-02-16T01:26:12.934Z,100.00
2019-02-16T01:29:18.107Z,100.00
2019-02-16T01:32:23.400Z,100.00
2019-02-16T01:35:28.541Z,100.00
2019-02-16T01:38:34.782Z,100.00
2019-02-16T01:41:40.077Z,100.00
2019-02-16T01:44:45.239Z,100.00
2019-02-16T01:47:50.378Z,100.00
2019-02-16T01:50:55.584Z,100.00
2019-02-16T01:54:00.770Z,100.00
2019-02-16T01:57:05.917Z,100.00
2019-02-16T02:00:11.578Z,100.00
2019-02-16T02:03:16.692Z,100.00
2019-02-16T02:06:21.918Z,100.00
2019-02-16T02:09:27.092Z,100.00
2019-02-16T02:12:32.384Z,100.00
2019-02-16T02:15:37.578Z,100.00
2019-02-16T02:18:42.784Z,100.00
2019-02-16T02:21:48.145Z,100.00
2019-02-16T02:24:53.323Z,100.00
2019-02-16T02:27:58.541Z,100.00
2019-02-16T02:31:03.666Z,100.00
2019-02-16T02:34:08.834Z,100.00
2019-02-16T02:37:14.046Z,100.00
2019-02-16T02:40:19.293Z,100.00
2019-02-16T02:43:24.453Z,100.00
2019-02-16T02:46:29.595Z,100.00
2019-02-16T02:49:34.716Z,100.00
2019-02-16T02:52:39.823Z,100.00
2019-02-16T02:55:44.980Z,100.00
2019-02-16T02:58:50.183Z,100.00
2019-02-16T03:01:55.308Z,100.00
2019-02-16T03:05:00.498Z,100.00
2019-02-16T03:08:05.736Z,100.00
2019-02-16T03:11:10.927Z,100.00
2019-02-16T03:14:16.066Z,100.00
2019-02-16T03:17:21.224Z,100.00
2019-02-16T03:20:26.424Z,100.00
2019-02-16T03:23:32.086Z,100.00
2019-02-16T03:27:07.226Z,100.00
2019-02-16T03:30:49.571Z,100.00
2019-02-16T03:34:03.170Z,100.00
2019-02-16T03:37:50.547Z,100.00
2019-02-16T03:40:55.692Z,100.00
2019-02-16T03:44:00.869Z,100.00
2019-02-16T03:47:07.099Z,100.00
2019-02-16T03:50:12.346Z,100.00
2019-02-16T03:53:17.649Z,100.00
2019-02-16T03:56:22.791Z,100.00
2019-02-16T03:59:27.900Z,100.00
2019-02-16T04:02:33.063Z,100.00
2019-02-16T04:05:38.219Z,100.00
2019-02-16T04:08:43.366Z,100.00
2019-02-16T04:11:48.559Z,100.00
2019-02-16T04:14:53.736Z,100.00
2019-02-16T04:17:58.881Z,100.00
2019-02-16T04:21:04.076Z,100.00
2019-02-16T04:24:09.301Z,100.00
2019-02-16T04:27:14.464Z,100.00
2019-02-16T04:30:19.612Z,100.00
2019-02-16T04:33:24.725Z,100.00
2019-02-16T04:36:29.901Z,100.00
2019-02-16T04:39:35.052Z,100.00
2019-02-16T04:42:40.197Z,100.00
2019-02-16T04:45:45.388Z,100.00
2019-02-16T04:48:50.659Z,100.00
2019-02-16T04:51:55.819Z,100.00
2019-02-16T04:55:00.986Z,100.00
2019-02-16T04:58:06.107Z,100.00
2019-02-16T05:01:11.281Z,100.00
2019-02-16T05:04:16.649Z,100.00
2019-02-16T05:07:21.912Z,100.00
2019-02-16T05:10:27.046Z,100.00
2019-02-16T05:13:32.187Z,100.00
2019-02-16T05:16:37.333Z,100.00
2019-02-16T05:19:42.457Z,100.00
2019-02-16T05:22:47.673Z,100.00
2019-02-16T05:25:52.807Z,100.00
2019-02-16T05:28:57.996Z,100.00
2019-02-16T05:32:03.176Z,100.00
2019-02-16T05:35:08.354Z,100.00
2019-02-16T05:38:13.666Z,100.00
2019-02-16T05:41:18.808Z,100.00
2019-02-16T05:44:24.029Z,100.00
2019-02-16T05:47:29.173Z,100.00
2019-02-16T05:50:34.343Z,100.00
2019-02-16T05:53:39.491Z,100.00
2019-02-16T05:56:44.639Z,100.00
2019-02-16T05:59:49.825Z,100.00
2019-02-16T06:02:54.976Z,100.00
2019-02-16T06:06:00.168Z,100.00
2019-02-16T06:09:06.451Z,100.00
2019-02-16T06:12:11.619Z,100.00
2019-02-16T06:15:16.791Z,100.00
2019-02-16T06:18:21.982Z,100.00
2019-02-16T06:21:28.206Z,100.00
2019-02-16T06:24:33.411Z,100.00
2019-02-16T06:27:38.611Z,100.00
2019-02-16T06:30:43.846Z,100.00
2019-02-16T06:33:48.943Z,100.00
2019-02-16T06:36:54.091Z,100.00
2019-02-16T06:39:59.283Z,100.00
2019-02-16T06:43:04.462Z,100.00
2019-02-16T06:46:09.637Z,100.00
2019-02-16T06:49:14.772Z,100.00
2019-02-16T06:52:19.978Z,100.00
2019-02-16T06:55:28.605Z,100.00
2019-02-16T06:58:33.777Z,100.00
2019-02-16T07:01:38.948Z,100.00
2019-02-16T07:04:44.099Z,100.00
2019-02-16T07:07:49.254Z,100.00
2019-02-16T07:10:54.435Z,100.00
2019-02-16T07:13:59.618Z,100.00
2019-02-16T07:17:30.201Z,100.00
2019-02-16T07:20:36.418Z,100.00
2019-02-16T07:23:41.607Z,99.96
2019-02-16T07:26:46.754Z,99.37
2019-02-16T07:29:51.933Z,99.00
2019-02-16T07:32:57.091Z,99.01
2019-02-16T07:36:02.236Z,98.80
2019-02-16T07:39:07.867Z,98.43
2019-02-16T07:42:13.037Z,98.19
2019-02-16T07:45:29.865Z,98.01
2019-02-16T07:48:53.991Z,97.48
2019-02-16T07:52:20.874Z,97.35
2019-02-16T07:55:36.164Z,96.72
2019-02-16T07:58:48.024Z,96.56
2019-02-16T08:02:12.102Z,96.36
2019-02-16T08:05:34.421Z,95.65
2019-02-16T08:09:07.715Z,94.93
2019-02-16T08:12:31.809Z,94.74
2019-02-16T08:15:51.534Z,94.20
2019-02-16T08:19:23.044Z,94.58
2019-02-16T08:22:41.406Z,93.62
2019-02-16T08:26:04.502Z,93.11
2019-02-16T08:29:22.660Z,92.30
2019-02-16T08:32:58.831Z,92.07
2019-02-16T08:36:10.388Z,91.39
2019-02-16T08:39:34.456Z,92.13
2019-02-16T08:43:01.406Z,90.31
2019-02-16T08:46:34.915Z,90.53
2019-02-16T08:50:05.165Z,89.90
2019-02-16T08:53:16.550Z,89.46
2019-02-16T08:56:39.376Z,88.02
2019-02-16T09:00:12.615Z,87.79
2019-02-16T09:03:36.023Z,88.04
2019-02-16T09:06:57.594Z,86.33
2019-02-16T09:10:30.969Z,86.46
2019-02-16T09:13:48.846Z,85.71
2019-02-16T09:17:13.537Z,84.58
2019-02-16T09:20:40.836Z,83.26
2019-02-16T09:24:03.805Z,82.61
2019-02-16T09:27:34.139Z,81.78
2019-02-16T09:30:56.536Z,81.96
2019-02-16T09:34:12.053Z,80.70
2019-02-16T09:37:39.190Z,81.33
2019-02-16T09:41:02.090Z,80.99
2019-02-16T09:44:18.113Z,78.26
2019-02-16T09:47:40.963Z,78.42
2019-02-16T09:51:17.108Z,78.07
2019-02-16T09:54:53.396Z,76.23
2019-02-16T09:58:16.229Z,76.76
2019-02-16T10:01:52.781Z,75.15
2019-02-16T10:05:09.891Z,74.60
2019-02-16T10:08:39.951Z,73.49
2019-02-16T10:11:51.244Z,72.08
2019-02-16T10:15:14.192Z,70.99
2019-02-16T10:18:30.763Z,70.79
2019-02-16T10:21:55.157Z,70.75
2019-02-16T10:25:28.512Z,69.10
2019-02-16T10:28:55.449Z,68.26
2019-02-16T10:32:22.311Z,67.17
2019-02-16T10:35:55.833Z,65.12
2019-02-16T10:39:25.259Z,63.83
2019-02-16T10:42:39.682Z,64.53
2019-02-16T10:46:03.699Z,65.41
2019-02-16T10:49:30.936Z,63.81
2019-02-16T10:52:54.276Z,65.38
2019-02-16T10:56:18.375Z,65.52
2019-02-16T10:59:42.316Z,62.76
2019-02-16T11:03:09.554Z,62.23
2019-02-16T11:06:35.303Z,62.81
2019-02-16T11:09:45.638Z,61.13
2019-02-16T11:12:59.264Z,61.07
2019-02-16T11:16:38.588Z,60.86
2019-02-16T11:20:05.643Z,60.19
2019-02-16T11:23:20.776Z,59.07
2019-02-16T11:26:47.859Z,58.27
2019-02-16T11:30:12.060Z,58.30
2019-02-16T11:33:24.456Z,59.31
2019-02-16T11:37:02.547Z,60.08
2019-02-16T11:40:27.008Z,59.74
2019-02-16T11:43:44.695Z,59.85
2019-02-16T11:47:15.164Z,60.61
2019-02-16T11:50:45.375Z,60.03
2019-02-16T11:54:04.531Z,60.62
2019-02-16T11:57:27.681Z,59.28
2019-02-16T12:00:40.272Z,58.69
2019-02-16T12:04:07.600Z,58.22
2019-02-16T12:07:37.733Z,57.77
2019-02-16T12:11:01.261Z,57.34
2019-02-16T12:14:37.719Z,58.40
2019-02-16T12:18:20.338Z,57.85
2019-02-16T12:22:02.691Z,58.52
2019-02-16T12:25:29.763Z,57.99
2019-02-16T12:28:46.619Z,57.53
2019-02-16T12:32:10.763Z,56.32
2019-02-16T12:35:30.811Z,56.54
2019-02-16T12:39:02.965Z,56.26
2019-02-16T12:42:32.769Z,56.06
2019-02-16T12:45:56.884Z,56.59
2019-02-16T12:49:20.055Z,54.67
2019-02-16T12:52:59.623Z,54.71
2019-02-16T12:56:32.765Z,55.26
2019-02-16T13:00:09.053Z,54.52
2019-02-16T13:03:21.257Z,52.95
2019-02-16T13:06:48.451Z,53.66
2019-02-16T13:10:11.486Z,53.63
2019-02-16T13:13:35.645Z,53.77
2019-02-16T13:17:02.674Z,52.96
2019-02-16T13:20:31.853Z,53.96
2019-02-16T13:24:11.048Z,53.48
2019-02-16T13:27:50.401Z,53.95
2019-02-16T13:31:32.908Z,53.59
2019-02-16T13:34:59.820Z,53.33
2019-02-16T13:38:22.559Z,52.88
2019-02-16T13:41:52.535Z,52.87
2019-02-16T13:45:19.377Z,53.29
2019-02-16T13:48:43.541Z,53.00
2019-02-16T13:51:58.383Z,52.69
2019-02-16T13:55:36.194Z,52.57
2019-02-16T13:59:04.540Z,52.71
2019-02-16T14:02:29.799Z,51.37
2019-02-16T14:05:51.973Z,52.42
2019-02-16T14:09:11.986Z,52.10
2019-02-16T14:12:24.699Z,52.30
2019-02-16T14:15:49.202Z,51.80
2019-02-16T14:18:54.401Z,51.99
2019-02-16T14:21:59.584Z,52.55
2019-02-16T14:25:06.887Z,52.12
2019-02-16T14:28:12.106Z,51.48
2019-02-16T14:31:18.694Z,51.71
2019-02-16T14:34:23.856Z,52.13
2019-02-16T14:37:38.412Z,52.63
2019-02-16T14:40:43.596Z,52.65
2019-02-16T14:43:48.709Z,53.37
2019-02-16T14:46:53.957Z,53.23
2019-02-16T14:49:59.056Z,54.08
2019-02-16T14:53:04.195Z,54.03
2019-02-16T14:56:09.482Z,53.85
2019-02-16T14:59:14.647Z,53.63
2019-02-16T15:02:19.777Z,54.78
2019-02-16T15:05:24.922Z,57.02
2019-02-16T15:08:30.077Z,56.99
2019-02-16T15:11:35.339Z,57.68
2019-02-16T15:14:40.504Z,58.21
2019-02-16T15:17:45.659Z,59.09
2019-02-16T15:20:50.807Z,59.70
2019-02-16T15:23:55.938Z,61.50
2019-02-16T15:27:01.029Z,62.05
2019-02-16T15:30:09.154Z,62.91
2019-02-16T15:33:14.358Z,63.51
2019-02-16T15:36:24.001Z,64.13
2019-02-16T15:39:26.346Z,64.87
2019-02-16T15:42:31.460Z,65.97
2019-02-16T15:45:36.563Z,66.10
2019-02-16T15:48:41.726Z,65.52
2019-02-16T15:51:46.929Z,65.31
2019-02-16T15:54:52.262Z,65.79
2019-02-16T15:57:57.358Z,66.29
2019-02-16T16:01:02.971Z,66.75
2019-02-16T16:04:08.165Z,66.64
2019-02-16T16:07:16.561Z,67.08
2019-02-16T16:10:31.739Z,67.23
2019-02-16T16:13:48.078Z,68.50
2019-02-16T16:17:18.195Z,69.86
2019-02-16T16:20:37.821Z,70.96
2019-02-16T16:24:04.779Z,71.43
2019-02-16T16:27:32.092Z,72.67
2019-02-16T16:30:49.624Z,73.61
2019-02-16T16:34:05.003Z,74.45
2019-02-16T16:37:29.278Z,75.10
2019-02-16T16:41:02.662Z,75.64
2019-02-16T16:44:35.883Z,76.44
2019-02-16T16:47:55.750Z,77.40
2019-02-16T16:51:13.641Z,78.31
2019-02-16T16:54:47.125Z,78.21
2019-02-16T16:58:07.043Z,79.37
2019-02-16T17:01:31.107Z,80.10
2019-02-16T17:04:55.521Z,81.16
2019-02-16T17:08:15.484Z,81.56
2019-02-16T17:11:42.453Z,82.17
2019-02-16T17:15:05.397Z,82.70
2019-02-16T17:18:47.707Z,83.02
2019-02-16T17:22:17.656Z,83.51
2019-02-16T17:25:40.289Z,84.70
2019-02-16T17:29:19.751Z,85.18
2019-02-16T17:32:46.726Z,85.28
2019-02-16T17:35:57.674Z,85.82
2019-02-16T17:39:11.477Z,86.71
2019-02-16T17:42:34.747Z,87.71
2019-02-16T17:46:05.216Z,88.48
2019-02-16T17:49:38.255Z,88.79
2019-02-16T17:53:01.377Z,89.04
2019-02-16T17:56:46.593Z,89.50
2019-02-16T17:59:51.609Z,88.99
2019-02-16T18:03:18.730Z,89.09
2019-02-16T18:06:51.802Z,89.77
2019-02-16T18:10:21.743Z,89.96
2019-02-16T18:13:58.014Z,90.15
2019-02-16T18:17:23.795Z,90.55
2019-02-16T18:20:53.858Z,91.23
2019-02-16T18:24:09.224Z,90.92
2019-02-16T18:27:45.449Z,90.81
2019-02-16T18:31:18.535Z,91.49
2019-02-16T18:34:50.766Z,92.08
2019-02-16T18:38:26.930Z,92.82
2019-02-16T18:41:56.963Z,93.73
2019-02-16T18:45:08.979Z,94.25
2019-02-16T18:48:21.519Z,94.64
2019-02-16T18:51:55.715Z,94.97
2019-02-16T18:55:11.890Z,95.08
2019-02-16T18:58:30.345Z,95.25
2019-02-16T19:01:50.190Z,95.37
2019-02-16T19:05:13.007Z,95.34
2019-02-16T19:08:26.473Z,95.11
2019-02-16T19:11:49.211Z,95.20
2019-02-16T19:15:00.885Z,96.03
2019-02-16T19:18:28.454Z,96.36
2019-02-16T19:21:42.444Z,96.69
2019-02-16T19:24:59.943Z,96.92
2019-02-16T19:28:20.613Z,97.17
2019-02-16T19:31:40.920Z,97.09
2019-02-16T19:35:05.103Z,96.92
2019-02-16T19:38:41.609Z,97.23
2019-02-16T19:41:59.775Z,97.69
2019-02-16T19:45:21.068Z,98.22
2019-02-16T19:48:44.908Z,98.32
2019-02-16T19:52:15.287Z,98.14
2019-02-16T19:55:42.688Z,98.41
2019-02-16T19:59:01.460Z,98.57
2019-02-16T20:02:31.731Z,98.72
2019-02-16T20:05:56.173Z,99.12
2019-02-16T20:09:14.733Z,99.25
2019-02-16T20:12:35.315Z,99.33
2019-02-16T20:15:51.808Z,99.21
2019-02-16T20:19:18.928Z,99.28
2019-02-16T20:23:01.392Z,99.34
2019-02-16T20:26:24.074Z,99.44
2019-02-16T20:29:44.456Z,99.56
2019-02-16T20:33:04.665Z,100.00
2019-02-16T20:36:27.275Z,100.00
2019-02-16T20:39:42.342Z,100.00
2019-02-16T20:42:58.582Z,100.00
2019-02-16T20:46:10.153Z,100.00
2019-02-16T20:49:27.773Z,100.00
2019-02-16T20:52:50.808Z,100.00
2019-02-16T20:56:21.037Z,100.00
2019-02-16T20:59:43.883Z,100.00
2019-02-16T21:03:10.942Z,100.00
2019-02-16T21:06:40.691Z,100.00
2019-02-16T21:10:11.012Z,100.00
2019-02-16T21:13:35.156Z,100.00
2019-02-16T21:16:59.362Z,100.00
2019-02-16T21:20:26.494Z,100.00
2019-02-16T21:24:00.054Z,100.00
2019-02-16T21:27:24.467Z,100.00
2019-02-16T21:30:36.168Z,100.00
2019-02-16T21:34:12.518Z,100.00
2019-02-16T21:37:24.647Z,100.00
2019-02-16T21:40:51.923Z,100.00
2019-02-16T21:44:06.663Z,100.00
2019-02-16T21:47:24.706Z,100.00
2019-02-16T21:51:04.022Z,100.00
2019-02-16T21:54:32.533Z,100.00
2019-02-16T21:57:45.891Z,100.00
2019-02-16T22:01:16.049Z,100.00
2019-02-16T22:04:26.167Z,100.00
2019-02-16T22:07:43.171Z,100.00
2019-02-16T22:11:25.448Z,100.00
2019-02-16T22:14:30.576Z,100.00
2019-02-16T22:17:35.784Z,100.00
2019-02-16T22:20:40.962Z,100.00
2019-02-16T22:23:46.131Z,100.00
2019-02-16T22:26:51.335Z,100.00
2019-02-16T22:29:56.492Z,100.00
2019-02-16T22:33:01.670Z,100.00
2019-02-16T22:36:06.958Z,100.00
2019-02-16T22:39:12.103Z,100.00
2019-02-16T22:42:17.398Z,100.00
2019-02-16T22:45:22.535Z,100.00
2019-02-16T22:48:27.795Z,100.00
2019-02-16T22:51:32.958Z,100.00
2019-02-16T22:54:38.121Z,100.00
2019-02-16T22:57:43.328Z,100.00
2019-02-16T23:00:49.559Z,100.00
2019-02-16T23:03:55.722Z,100.00
2019-02-16T23:07:00.916Z,100.00
2019-02-16T23:10:07.335Z,100.00
2019-02-16T23:13:13.239Z,100.00
2019-02-16T23:16:18.431Z,100.00
2019-02-16T23:19:23.898Z,100.00
2019-02-16T23:22:29.084Z,100.00
2019-02-16T23:25:34.220Z,100.00
2019-02-16T23:28:39.465Z,100.00
2019-02-16T23:31:44.661Z,100.00
2019-02-16T23:34:49.839Z,100.00
2019-02-16T23:37:55.019Z,100.00
2019-02-16T23:41:00.188Z,100.00
2019-02-16T23:44:05.448Z,100.00
2019-02-16T23:47:10.546Z,100.00
2019-02-16T23:50:15.999Z,100.00
2019-02-16T23:53:21.235Z,100.00
2019-02-16T23:56:26.424Z,100.00
2019-02-16T23:59:31.888Z,100.00
